createdAt,value
2018-12-08T00:00:52.350Z,0.00
2018-12-08T00:01:52.301Z,0.00
2018-12-08T00:02:52.291Z,0.00
2018-12-08T00:03:52.321Z,0.00
2018-12-08T00:04:52.307Z,0.00
2018-12-08T00:05:52.256Z,0.00
2018-12-08T00:06:52.244Z,0.00
2018-12-08T00:07:52.234Z,0.00
2018-12-08T00:08:52.224Z,0.00
2018-12-08T00:09:52.213Z,0.00
2018-12-08T00:10:52.252Z,0.00
2018-12-08T00:11:52.190Z,0.00
2018-12-08T00:12:52.186Z,0.00
2018-12-08T00:13:52.167Z,0.00
2018-12-08T00:14:52.157Z,0.00
2018-12-08T00:15:52.148Z,0.00
2018-12-08T00:16:52.178Z,0.00
2018-12-08T00:17:52.125Z,0.00
2018-12-08T00:18:52.112Z,0.00
2018-12-08T00:19:52.103Z,0.00
2018-12-08T00:20:52.140Z,0.00
2018-12-08T00:21:52.080Z,0.00
2018-12-08T00:22:52.120Z,0.00
2018-12-08T00:23:52.058Z,0.00
2018-12-08T00:24:52.055Z,0.00
2018-12-08T00:25:52.047Z,0.00
2018-12-08T00:26:52.027Z,0.00
2018-12-08T00:27:52.012Z,0.00
2018-12-08T00:28:52.148Z,0.00
2018-12-08T00:29:51.990Z,0.00
2018-12-08T00:30:52.156Z,0.00
2018-12-08T00:31:51.970Z,0.00
2018-12-08T00:32:51.958Z,0.00
2018-12-08T00:33:51.946Z,0.00
2018-12-08T00:34:51.939Z,0.00
2018-12-08T00:35:51.926Z,0.00
2018-12-08T00:36:51.957Z,0.00
2018-12-08T00:37:51.902Z,0.00
2018-12-08T00:38:51.891Z,0.00
2018-12-08T00:39:51.881Z,0.00
2018-12-08T00:40:51.869Z,0.00
2018-12-08T00:41:51.862Z,0.00
2018-12-08T00:42:51.898Z,0.00
2018-12-08T00:43:51.835Z,0.00
2018-12-08T00:44:51.826Z,0.00
2018-12-08T00:45:51.815Z,0.00
2018-12-08T00:46:51.806Z,0.00
2018-12-08T00:47:51.836Z,0.00
2018-12-08T00:48:51.781Z,0.00
2018-12-08T00:49:51.769Z,0.00
2018-12-08T00:50:51.758Z,0.00
2018-12-08T00:51:51.774Z,0.00
2018-12-08T00:52:51.738Z,0.00
2018-12-08T00:53:51.771Z,0.00
2018-12-08T00:54:51.713Z,0.00
2018-12-08T00:55:51.704Z,0.00
2018-12-08T00:56:51.731Z,0.00
2018-12-08T00:57:51.680Z,0.00
2018-12-08T00:58:51.669Z,0.00
2018-12-08T00:59:51.702Z,0.00
2018-12-08T01:00:51.652Z,0.00
2018-12-08T01:01:51.639Z,0.00
2018-12-08T01:02:51.634Z,0.00
2018-12-08T01:03:51.616Z,0.00
2018-12-08T01:04:51.605Z,0.00
2018-12-08T01:05:51.630Z,0.00
2018-12-08T01:06:51.581Z,0.00
2018-12-08T01:07:51.569Z,0.00
2018-12-08T01:08:51.557Z,0.00
2018-12-08T01:09:51.596Z,0.00
2018-12-08T01:10:51.586Z,0.00
2018-12-08T01:11:51.526Z,0.00
2018-12-08T01:12:51.515Z,0.00
2018-12-08T01:13:51.508Z,0.00
2018-12-08T01:14:51.497Z,0.00
2018-12-08T01:15:51.481Z,0.00
2018-12-08T01:16:51.508Z,0.00
2018-12-08T01:17:51.457Z,0.00
2018-12-08T01:18:51.448Z,0.00
2018-12-08T01:19:51.477Z,0.00
2018-12-08T01:20:51.426Z,0.00
2018-12-08T01:21:51.453Z,0.00
2018-12-08T01:22:51.440Z,0.00
2018-12-08T01:23:51.395Z,0.00
2018-12-08T01:24:51.385Z,0.00
2018-12-08T01:25:51.411Z,0.00
2018-12-08T01:26:51.358Z,0.00
2018-12-08T01:27:51.349Z,0.00
2018-12-08T01:28:51.337Z,0.00
2018-12-08T01:29:51.325Z,0.00
2018-12-08T01:30:51.352Z,0.00
2018-12-08T01:31:51.303Z,0.00
2018-12-08T01:32:51.332Z,0.00
2018-12-08T01:33:51.281Z,0.00
2018-12-08T01:34:51.268Z,0.00
2018-12-08T01:35:51.262Z,0.00
2018-12-08T01:36:51.252Z,0.00
2018-12-08T01:37:51.280Z,0.00
2018-12-08T01:38:51.226Z,0.00
2018-12-08T01:39:51.216Z,0.00
2018-12-08T01:40:51.204Z,0.00
2018-12-08T01:41:51.206Z,0.00
2018-12-08T01:42:51.183Z,0.00
2018-12-08T01:43:51.210Z,0.00
2018-12-08T01:44:51.166Z,0.00
2018-12-08T01:45:51.151Z,0.00
2018-12-08T01:46:51.137Z,0.00
2018-12-08T01:47:51.128Z,0.00
2018-12-08T01:48:51.156Z,0.00
2018-12-08T01:49:51.105Z,0.00
2018-12-08T01:50:51.094Z,0.00
2018-12-08T01:51:51.085Z,0.00
2018-12-08T01:52:51.072Z,0.00
2018-12-08T01:53:51.063Z,0.00
2018-12-08T01:54:51.088Z,0.00
2018-12-08T01:55:51.039Z,0.00
2018-12-08T01:56:51.028Z,0.00
2018-12-08T01:57:51.016Z,0.00
2018-12-08T01:58:51.052Z,0.00
2018-12-08T01:59:51.005Z,0.00
2018-12-08T02:00:50.984Z,0.00
2018-12-08T02:01:50.971Z,0.00
2018-12-08T02:02:50.961Z,0.00
2018-12-08T02:03:52.810Z,0.00
2018-12-08T02:04:50.979Z,0.00
2018-12-08T02:05:50.931Z,0.00
2018-12-08T02:06:50.920Z,0.00
2018-12-08T02:07:50.945Z,0.00
2018-12-08T02:08:50.898Z,0.00
2018-12-08T02:09:50.886Z,0.00
2018-12-08T02:10:50.913Z,0.00
2018-12-08T02:11:50.862Z,0.00
2018-12-08T02:12:50.851Z,0.00
2018-12-08T02:13:50.859Z,0.00
2018-12-08T02:14:50.829Z,0.00
2018-12-08T02:15:50.821Z,0.00
2018-12-08T02:16:50.846Z,0.00
2018-12-08T02:17:50.798Z,0.00
2018-12-08T02:18:50.789Z,0.00
2018-12-08T02:19:50.773Z,0.00
2018-12-08T02:20:50.806Z,0.00
2018-12-08T02:21:50.752Z,0.00
2018-12-08T02:22:50.742Z,0.00
2018-12-08T02:23:50.730Z,0.00
2018-12-08T02:24:50.731Z,0.00
2018-12-08T02:25:50.745Z,0.00
2018-12-08T02:26:50.736Z,0.00
2018-12-08T02:27:50.684Z,0.00
2018-12-08T02:28:50.674Z,0.00
2018-12-08T02:29:50.663Z,0.00
2018-12-08T02:30:50.651Z,0.00
2018-12-08T02:31:50.641Z,0.00
2018-12-08T02:32:50.670Z,0.00
2018-12-08T02:33:50.619Z,0.00
2018-12-08T02:34:50.608Z,0.00
2018-12-08T02:35:50.603Z,0.00
2018-12-08T02:36:50.585Z,0.00
2018-12-08T02:37:50.621Z,0.00
2018-12-08T02:38:50.623Z,0.00
2018-12-08T02:39:50.553Z,0.00
2018-12-08T02:40:50.542Z,0.00
2018-12-08T02:41:50.536Z,0.00
2018-12-08T02:42:50.522Z,0.00
2018-12-08T02:43:50.508Z,0.00
2018-12-08T02:44:50.540Z,0.00
2018-12-08T02:45:50.487Z,0.00
2018-12-08T02:46:50.475Z,0.00
2018-12-08T02:47:50.469Z,0.00
2018-12-08T02:48:50.456Z,0.00
2018-12-08T02:49:50.441Z,0.00
2018-12-08T02:50:50.468Z,0.00
2018-12-08T02:51:50.421Z,0.00
2018-12-08T02:52:50.412Z,0.00
2018-12-08T02:53:50.397Z,0.00
2018-12-08T02:54:50.386Z,0.00
2018-12-08T02:55:50.777Z,0.00
2018-12-08T02:56:50.366Z,0.00
2018-12-08T02:57:50.354Z,0.00
2018-12-08T02:58:50.343Z,0.00
2018-12-08T02:59:50.330Z,0.00
2018-12-08T03:00:50.320Z,0.00
2018-12-08T03:01:50.339Z,0.00
2018-12-08T03:02:50.325Z,0.00
2018-12-08T03:03:50.317Z,0.00
2018-12-08T03:04:50.281Z,0.00
2018-12-08T03:05:50.267Z,0.00
2018-12-08T03:06:50.255Z,0.00
2018-12-08T03:07:50.241Z,0.00
2018-12-08T03:08:50.233Z,0.00
2018-12-08T03:09:50.249Z,0.00
2018-12-08T03:10:50.208Z,0.00
2018-12-08T03:11:50.199Z,0.00
2018-12-08T03:12:50.189Z,0.00
2018-12-08T03:13:50.210Z,0.00
2018-12-08T03:14:50.166Z,0.00
2018-12-08T03:15:50.154Z,0.00
2018-12-08T03:16:50.145Z,0.00
2018-12-08T03:17:50.166Z,0.00
2018-12-08T03:18:50.121Z,0.00
2018-12-08T03:19:50.126Z,0.00
2018-12-08T03:20:50.179Z,0.00
2018-12-08T03:21:50.089Z,0.00
2018-12-08T03:22:50.077Z,0.00
2018-12-08T03:23:50.101Z,0.00
2018-12-08T03:24:50.058Z,0.00
2018-12-08T03:25:50.042Z,0.00
2018-12-08T03:26:50.039Z,0.00
2018-12-08T03:27:50.023Z,0.00
2018-12-08T03:28:50.007Z,0.00
2018-12-08T03:29:50.034Z,0.00
2018-12-08T03:30:50.001Z,0.00
2018-12-08T03:31:49.976Z,0.00
2018-12-08T03:32:49.977Z,0.00
2018-12-08T03:33:49.956Z,0.00
2018-12-08T03:34:49.972Z,0.00
2018-12-08T03:35:50.126Z,0.00
2018-12-08T03:36:49.920Z,0.00
2018-12-08T03:37:49.948Z,0.00
2018-12-08T03:38:49.899Z,0.00
2018-12-08T03:39:50.126Z,0.00
2018-12-08T03:40:49.880Z,0.00
2018-12-08T03:41:49.895Z,0.00
2018-12-08T03:42:49.854Z,0.00
2018-12-08T03:43:49.842Z,0.00
2018-12-08T03:44:49.869Z,0.00
2018-12-08T03:45:49.821Z,0.00
2018-12-08T03:46:49.820Z,0.00
2018-12-08T03:47:49.801Z,0.00
2018-12-08T03:48:49.786Z,0.00
2018-12-08T03:49:49.809Z,0.00
2018-12-08T03:50:49.765Z,0.00
2018-12-08T03:51:49.755Z,0.00
2018-12-08T03:52:49.746Z,0.00
2018-12-08T03:53:49.733Z,0.00
2018-12-08T03:54:49.724Z,0.00
2018-12-08T03:55:49.740Z,0.00
2018-12-08T03:56:49.727Z,0.00
2018-12-08T03:57:49.689Z,0.00
2018-12-08T03:58:49.678Z,0.00
2018-12-08T03:59:49.665Z,0.00
2018-12-08T04:00:49.683Z,0.00
2018-12-08T04:01:49.647Z,0.00
2018-12-08T04:02:49.631Z,0.00
2018-12-08T04:03:49.627Z,0.00
2018-12-08T04:04:49.615Z,0.00
2018-12-08T04:05:50.139Z,0.00
2018-12-08T04:06:49.592Z,0.00
2018-12-08T04:07:49.576Z,0.00
2018-12-08T04:08:49.564Z,0.00
2018-12-08T04:09:49.555Z,0.00
2018-12-08T04:10:49.546Z,0.00
2018-12-08T04:11:49.565Z,0.00
2018-12-08T04:12:49.526Z,0.00
2018-12-08T04:13:49.511Z,0.00
2018-12-08T04:14:49.500Z,0.00
2018-12-08T04:15:49.487Z,0.00
2018-12-08T04:16:49.475Z,0.00
2018-12-08T04:17:49.495Z,0.00
2018-12-08T04:18:49.494Z,0.00
2018-12-08T04:19:49.443Z,0.00
2018-12-08T04:20:49.447Z,0.00
2018-12-08T04:21:49.421Z,0.00
2018-12-08T04:22:49.415Z,0.00
2018-12-08T04:23:49.399Z,0.00
2018-12-08T04:24:49.424Z,0.00
2018-12-08T04:25:49.376Z,0.00
2018-12-08T04:26:49.369Z,0.00
2018-12-08T04:27:49.356Z,0.00
2018-12-08T04:28:49.343Z,0.00
2018-12-08T04:29:49.331Z,0.00
2018-12-08T04:30:49.353Z,0.00
2018-12-08T04:31:49.310Z,0.00
2018-12-08T04:32:49.307Z,0.00
2018-12-08T04:33:49.288Z,0.00
2018-12-08T04:34:49.275Z,0.00
2018-12-08T04:35:49.263Z,0.00
2018-12-08T04:36:49.282Z,0.00
2018-12-08T04:37:49.244Z,0.00
2018-12-08T04:38:49.229Z,0.00
2018-12-08T04:39:49.225Z,0.00
2018-12-08T04:40:49.245Z,0.00
2018-12-08T04:41:49.199Z,0.00
2018-12-08T04:42:49.189Z,0.00
2018-12-08T04:43:49.176Z,0.00
2018-12-08T04:44:49.183Z,0.00
2018-12-08T04:45:49.154Z,0.00
2018-12-08T04:46:49.176Z,0.00
2018-12-08T04:47:49.135Z,0.00
2018-12-08T04:48:49.127Z,0.00
2018-12-08T04:49:49.110Z,0.00
2018-12-08T04:50:49.100Z,0.00
2018-12-08T04:51:49.131Z,0.00
2018-12-08T04:52:49.078Z,0.00
2018-12-08T04:53:49.065Z,0.00
2018-12-08T04:54:49.086Z,0.00
2018-12-08T04:55:49.049Z,0.00
2018-12-08T04:56:49.066Z,0.00
2018-12-08T04:57:49.025Z,0.00
2018-12-08T04:58:49.012Z,0.00
2018-12-08T04:59:49.028Z,0.00
2018-12-08T05:00:48.993Z,0.00
2018-12-08T05:01:48.981Z,0.00
2018-12-08T05:02:48.965Z,0.00
2018-12-08T05:03:48.955Z,0.00
2018-12-08T05:04:48.973Z,0.00
2018-12-08T05:05:48.934Z,0.00
2018-12-08T05:06:48.924Z,0.00
2018-12-08T05:07:48.941Z,0.00
2018-12-08T05:08:48.900Z,0.00
2018-12-08T05:09:48.888Z,0.00
2018-12-08T05:10:48.877Z,0.00
2018-12-08T05:11:48.896Z,0.00
2018-12-08T05:12:48.855Z,0.00
2018-12-08T05:13:48.844Z,0.00
2018-12-08T05:14:48.835Z,0.00
2018-12-08T05:15:48.823Z,0.00
2018-12-08T05:16:48.825Z,0.00
2018-12-08T05:17:48.829Z,0.00
2018-12-08T05:18:48.791Z,0.00
2018-12-08T05:19:48.808Z,0.00
2018-12-08T05:20:48.768Z,0.00
2018-12-08T05:21:48.756Z,0.00
2018-12-08T05:22:48.746Z,0.00
2018-12-08T05:23:48.768Z,0.00
2018-12-08T05:24:48.726Z,0.00
2018-12-08T05:25:48.715Z,0.00
2018-12-08T05:26:48.706Z,0.00
2018-12-08T05:27:48.691Z,0.00
2018-12-08T05:28:48.681Z,0.00
2018-12-08T05:29:48.699Z,0.00
2018-12-08T05:30:48.659Z,0.00
2018-12-08T05:31:48.647Z,0.00
2018-12-08T05:32:48.636Z,0.00
2018-12-08T05:33:48.625Z,0.00
2018-12-08T05:34:48.646Z,0.00
2018-12-08T05:35:48.606Z,0.00
2018-12-08T05:36:48.592Z,0.00
2018-12-08T05:37:48.653Z,0.00
2018-12-08T05:38:48.570Z,0.00
2018-12-08T05:39:48.562Z,0.00
2018-12-08T05:40:48.550Z,0.00
2018-12-08T05:41:48.543Z,0.00
2018-12-08T05:42:48.526Z,0.00
2018-12-08T05:43:48.545Z,0.00
2018-12-08T05:44:48.504Z,0.00
2018-12-08T05:45:48.494Z,0.00
2018-12-08T05:46:49.334Z,0.00
2018-12-08T05:47:48.475Z,0.00
2018-12-08T05:48:48.728Z,0.00
2018-12-08T05:49:48.450Z,0.00
2018-12-08T05:50:48.441Z,0.00
2018-12-08T05:51:48.431Z,0.00
2018-12-08T05:52:48.417Z,0.00
2018-12-08T05:53:48.407Z,0.00
2018-12-08T05:54:48.424Z,0.00
2018-12-08T05:55:48.385Z,0.00
2018-12-08T05:56:48.377Z,0.00
2018-12-08T05:57:48.362Z,0.00
2018-12-08T05:58:48.350Z,0.00
2018-12-08T05:59:48.378Z,0.00
2018-12-08T06:00:48.328Z,0.00
2018-12-08T06:01:48.322Z,0.00
2018-12-08T06:02:48.317Z,0.00
2018-12-08T06:03:48.330Z,0.00
2018-12-08T06:04:48.283Z,0.00
2018-12-08T06:05:48.280Z,0.00
2018-12-08T06:06:48.299Z,0.00
2018-12-08T06:07:48.254Z,0.00
2018-12-08T06:08:48.242Z,0.00
2018-12-08T06:09:48.278Z,0.00
2018-12-08T06:10:48.221Z,0.00
2018-12-08T06:11:48.212Z,0.00
2018-12-08T06:12:48.206Z,0.00
2018-12-08T06:13:48.189Z,0.00
2018-12-08T06:14:48.179Z,0.00
2018-12-08T06:15:48.200Z,0.00
2018-12-08T06:16:48.156Z,0.00
2018-12-08T06:17:48.149Z,0.00
2018-12-08T06:18:48.170Z,0.00
2018-12-08T06:19:48.121Z,0.00
2018-12-08T06:20:48.110Z,0.00
2018-12-08T06:21:48.101Z,0.00
2018-12-08T06:22:48.093Z,0.00
2018-12-08T06:23:48.078Z,0.00
2018-12-08T06:24:48.125Z,0.00
2018-12-08T06:25:48.053Z,0.00
2018-12-08T06:26:48.044Z,0.00
2018-12-08T06:27:48.034Z,0.00
2018-12-08T06:28:48.023Z,0.00
2018-12-08T06:29:48.015Z,0.00
2018-12-08T06:30:48.031Z,0.00
2018-12-08T06:31:47.993Z,0.00
2018-12-08T06:32:47.975Z,0.00
2018-12-08T06:33:48.002Z,0.00
2018-12-08T06:34:47.956Z,0.00
2018-12-08T06:35:47.950Z,0.00
2018-12-08T06:36:47.935Z,0.00
2018-12-08T06:37:48.116Z,0.00
2018-12-08T06:38:47.940Z,0.00
2018-12-08T06:39:47.901Z,0.00
2018-12-08T06:40:47.892Z,0.00
2018-12-08T06:41:47.881Z,0.00
2018-12-08T06:42:47.873Z,0.00
2018-12-08T06:43:47.889Z,0.00
2018-12-08T06:44:47.847Z,0.00
2018-12-08T06:45:47.850Z,4.00
2018-12-08T06:46:47.825Z,4.00
2018-12-08T06:47:47.815Z,4.00
2018-12-08T06:48:47.837Z,4.00
2018-12-08T06:49:47.792Z,4.00
2018-12-08T06:50:47.781Z,4.00
2018-12-08T06:51:47.768Z,8.00
2018-12-08T06:52:47.755Z,8.00
2018-12-08T06:53:47.749Z,8.00
2018-12-08T06:54:47.767Z,8.00
2018-12-08T06:55:47.730Z,12.00
2018-12-08T06:56:47.717Z,16.00
2018-12-08T06:57:47.721Z,16.00
2018-12-08T06:58:47.726Z,20.00
2018-12-08T06:59:47.679Z,20.00
2018-12-08T07:00:47.714Z,24.00
2018-12-08T07:01:47.658Z,28.00
2018-12-08T07:02:47.653Z,32.00
2018-12-08T07:03:47.644Z,36.00
2018-12-08T07:04:47.632Z,44.00
2018-12-08T07:05:47.658Z,48.00
2018-12-08T07:06:47.604Z,52.00
2018-12-08T07:07:47.597Z,60.00
2018-12-08T07:08:47.590Z,68.00
2018-12-08T07:09:47.573Z,68.00
2018-12-08T07:10:47.565Z,68.00
2018-12-08T07:11:47.616Z,68.00
2018-12-08T07:12:47.550Z,60.00
2018-12-08T07:13:47.543Z,56.00
2018-12-08T07:14:47.517Z,52.00
2018-12-08T07:15:47.508Z,52.00
2018-12-08T07:16:47.500Z,68.00
2018-12-08T07:17:47.524Z,84.00
2018-12-08T07:18:47.477Z,128.00
2018-12-08T07:19:47.495Z,172.00
2018-12-08T07:20:47.483Z,200.00
2018-12-08T07:21:47.458Z,220.00
2018-12-08T07:22:47.434Z,252.00
2018-12-08T07:23:47.422Z,288.00
2018-12-08T07:24:47.408Z,324.00
2018-12-08T07:25:47.409Z,356.00
2018-12-08T07:26:47.423Z,384.00
2018-12-08T07:27:47.378Z,400.00
2018-12-08T07:28:47.365Z,420.00
2018-12-08T07:29:47.351Z,440.00
2018-12-08T07:30:47.375Z,468.00
2018-12-08T07:31:47.344Z,512.00
2018-12-08T07:32:47.325Z,564.00
2018-12-08T07:33:47.348Z,608.00
2018-12-08T07:34:47.314Z,620.00
2018-12-08T07:35:47.291Z,624.00
2018-12-08T07:36:47.308Z,632.00
2018-12-08T07:37:47.269Z,664.00
2018-12-08T07:38:47.256Z,708.00
2018-12-08T07:39:47.248Z,772.00
2018-12-08T07:40:47.234Z,828.00
2018-12-08T07:41:47.259Z,860.00
2018-12-08T07:42:47.210Z,884.00
2018-12-08T07:43:47.204Z,924.00
2018-12-08T07:44:47.204Z,1012.00
2018-12-08T07:45:47.184Z,1092.00
2018-12-08T07:46:47.201Z,1144.00
2018-12-08T07:47:47.159Z,1176.00
2018-12-08T07:48:47.154Z,1204.00
2018-12-08T07:49:47.141Z,1224.00
2018-12-08T07:50:47.126Z,1244.00
2018-12-08T07:51:47.146Z,1272.00
2018-12-08T07:52:47.103Z,1292.00
2018-12-08T07:53:47.098Z,1288.00
2018-12-08T07:54:47.117Z,1280.00
2018-12-08T07:55:47.076Z,1272.00
2018-12-08T07:56:47.064Z,1220.00
2018-12-08T07:57:47.323Z,1112.00
2018-12-08T07:58:47.045Z,984.00
2018-12-08T07:59:47.033Z,880.00
2018-12-08T08:00:47.023Z,668.00
2018-12-08T08:01:47.004Z,452.00
2018-12-08T08:02:46.995Z,376.00
2018-12-08T08:03:47.018Z,344.00
2018-12-08T08:04:46.978Z,396.00
2018-12-08T08:05:46.999Z,572.00
2018-12-08T08:06:47.009Z,680.00
2018-12-08T08:07:46.945Z,800.00
2018-12-08T08:08:46.929Z,1088.00
2018-12-08T08:09:46.918Z,1292.00
2018-12-08T08:10:46.911Z,1420.00
2018-12-08T08:11:46.937Z,1568.00
2018-12-08T08:12:46.897Z,1824.00
2018-12-08T08:13:46.874Z,2080.00
2018-12-08T08:14:46.868Z,2244.00
2018-12-08T08:15:46.852Z,2396.00
2018-12-08T08:16:46.840Z,2580.00
2018-12-08T08:17:46.861Z,2764.00
2018-12-08T08:18:46.826Z,2840.00
2018-12-08T08:19:46.809Z,2800.00
2018-12-08T08:20:46.806Z,2796.00
2018-12-08T08:21:46.791Z,2788.00
2018-12-08T08:22:46.778Z,2900.00
2018-12-08T08:23:46.793Z,3044.00
2018-12-08T08:24:46.754Z,2976.00
2018-12-08T08:25:46.758Z,2932.00
2018-12-08T08:26:46.732Z,2880.00
2018-12-08T08:27:46.751Z,2840.00
2018-12-08T08:28:46.712Z,2932.00
2018-12-08T08:29:46.701Z,2904.00
2018-12-08T08:30:46.689Z,2812.00
2018-12-08T08:31:46.689Z,2868.00
2018-12-08T08:32:46.664Z,3108.00
2018-12-08T08:33:46.688Z,3208.00
2018-12-08T08:34:46.646Z,3408.00
2018-12-08T08:35:46.635Z,3592.00
2018-12-08T08:36:46.623Z,3560.00
2018-12-08T08:37:46.615Z,3296.00
2018-12-08T08:38:46.601Z,3484.00
2018-12-08T08:39:46.625Z,3512.00
2018-12-08T08:40:46.580Z,3384.00
2018-12-08T08:41:46.599Z,3548.00
2018-12-08T08:42:46.560Z,3616.00
2018-12-08T08:43:46.585Z,3752.00
2018-12-08T08:44:46.536Z,3784.00
2018-12-08T08:45:46.544Z,3904.00
2018-12-08T08:46:46.511Z,3900.00
2018-12-08T08:47:46.503Z,3900.00
2018-12-08T08:48:46.496Z,3844.00
2018-12-08T08:49:46.608Z,3824.00
2018-12-08T08:50:46.472Z,3548.00
2018-12-08T08:51:46.461Z,3412.00
2018-12-08T08:52:46.449Z,3420.00
2018-12-08T08:53:46.435Z,3492.00
2018-12-08T08:54:46.426Z,3584.00
2018-12-08T08:55:46.455Z,3736.00
2018-12-08T08:56:46.414Z,3812.00
2018-12-08T08:57:46.399Z,3844.00
2018-12-08T08:58:46.384Z,3824.00
2018-12-08T08:59:46.369Z,3752.00
2018-12-08T09:00:46.361Z,3676.00
2018-12-08T09:01:46.380Z,3560.00
2018-12-08T09:02:46.342Z,3312.00
2018-12-08T09:03:46.329Z,3040.00
2018-12-08T09:04:46.320Z,3220.00
2018-12-08T09:05:46.304Z,3120.00
2018-12-08T09:06:46.556Z,3676.00
2018-12-08T09:07:46.280Z,4036.00
2018-12-08T09:08:46.268Z,4204.00
2018-12-08T09:09:46.263Z,4428.00
2018-12-08T09:10:46.269Z,4784.00
2018-12-08T09:11:46.237Z,4952.00
2018-12-08T09:12:46.268Z,4948.00
2018-12-08T09:13:46.213Z,4500.00
2018-12-08T09:14:46.213Z,3992.00
2018-12-08T09:15:46.191Z,3648.00
2018-12-08T09:16:46.210Z,3468.00
2018-12-08T09:17:46.211Z,3504.00
2018-12-08T09:18:46.161Z,3700.00
2018-12-08T09:19:46.148Z,3864.00
2018-12-08T09:20:46.143Z,3856.00
2018-12-08T09:21:46.128Z,3620.00
2018-12-08T09:22:46.113Z,3280.00
2018-12-08T09:23:46.132Z,2904.00
2018-12-08T09:24:46.132Z,2744.00
2018-12-08T09:25:46.086Z,2796.00
2018-12-08T09:26:46.076Z,2852.00
2018-12-08T09:27:46.057Z,3064.00
2018-12-08T09:28:46.045Z,3596.00
2018-12-08T09:29:46.039Z,4024.00
2018-12-08T09:30:46.057Z,4432.00
2018-12-08T09:31:46.018Z,4792.00
2018-12-08T09:32:46.003Z,5220.00
2018-12-08T09:33:45.997Z,5532.00
2018-12-08T09:34:45.994Z,5688.00
2018-12-08T09:35:45.970Z,5604.00
2018-12-08T09:36:45.989Z,5580.00
2018-12-08T09:37:45.950Z,5604.00
2018-12-08T09:38:45.946Z,5872.00
2018-12-08T09:39:45.935Z,6276.00
2018-12-08T09:40:45.947Z,6364.00
2018-12-08T09:41:45.937Z,6452.00
2018-12-08T09:42:45.898Z,6444.00
2018-12-08T09:43:45.881Z,6320.00
2018-12-08T09:44:45.873Z,6284.00
2018-12-08T09:45:45.900Z,6000.00
2018-12-08T09:46:45.848Z,5932.00
2018-12-08T09:47:45.841Z,5956.00
2018-12-08T09:48:45.827Z,5772.00
2018-12-08T09:49:45.817Z,5708.00
2018-12-08T09:50:45.804Z,5800.00
2018-12-08T09:51:45.824Z,5652.00
2018-12-08T09:52:45.786Z,5908.00
2018-12-08T09:53:45.770Z,6052.00
2018-12-08T09:54:47.521Z,6196.00
2018-12-08T09:55:45.753Z,5764.00
2018-12-08T09:56:45.739Z,5312.00
2018-12-08T09:57:45.757Z,4176.00
2018-12-08T09:58:45.729Z,4144.00
2018-12-08T09:59:45.708Z,4300.00
2018-12-08T10:00:45.693Z,4220.00
2018-12-08T10:01:45.689Z,4080.00
2018-12-08T10:02:45.671Z,4012.00
2018-12-08T10:03:45.714Z,3968.00
2018-12-08T10:04:45.657Z,3936.00
2018-12-08T10:05:45.639Z,3884.00
2018-12-08T10:06:45.629Z,3852.00
2018-12-08T10:07:45.615Z,3796.00
2018-12-08T10:08:45.604Z,3736.00
2018-12-08T10:09:45.624Z,3612.00
2018-12-08T10:10:45.584Z,3380.00
2018-12-08T10:11:45.573Z,3028.00
2018-12-08T10:12:45.560Z,2732.00
2018-12-08T10:13:45.554Z,2692.00
2018-12-08T10:14:45.539Z,2964.00
2018-12-08T10:15:45.564Z,3844.00
2018-12-08T10:16:45.527Z,4684.00
2018-12-08T10:17:45.513Z,4880.00
2018-12-08T10:18:45.499Z,4832.00
2018-12-08T10:19:45.490Z,4644.00
2018-12-08T10:20:45.608Z,4256.00
2018-12-08T10:21:45.464Z,3744.00
2018-12-08T10:22:45.455Z,3540.00
2018-12-08T10:23:45.442Z,3152.00
2018-12-08T10:24:45.472Z,2808.00
2018-12-08T10:25:45.419Z,2620.00
2018-12-08T10:26:45.408Z,2352.00
2018-12-08T10:27:45.399Z,2276.00
2018-12-08T10:28:45.394Z,2196.00
2018-12-08T10:29:45.371Z,1880.00
2018-12-08T10:30:45.610Z,1724.00
2018-12-08T10:31:45.388Z,1728.00
2018-12-08T10:32:45.341Z,1848.00
2018-12-08T10:33:45.327Z,1996.00
2018-12-08T10:34:45.319Z,1828.00
2018-12-08T10:35:45.308Z,1652.00
2018-12-08T10:36:45.327Z,1232.00
2018-12-08T10:37:45.294Z,1224.00
2018-12-08T10:38:45.273Z,1292.00
2018-12-08T10:39:45.277Z,1288.00
2018-12-08T10:40:45.259Z,1320.00
2018-12-08T10:41:45.243Z,1292.00
2018-12-08T10:42:45.257Z,1380.00
2018-12-08T10:43:45.220Z,1448.00
2018-12-08T10:44:45.218Z,1448.00
2018-12-08T10:45:45.198Z,1408.00
2018-12-08T10:46:45.183Z,1496.00
2018-12-08T10:47:45.181Z,1464.00
2018-12-08T10:48:45.467Z,1544.00
2018-12-08T10:49:45.154Z,1628.00
2018-12-08T10:50:45.136Z,1660.00
2018-12-08T10:51:45.132Z,1716.00
2018-12-08T10:52:45.116Z,1940.00
2018-12-08T10:53:45.496Z,2276.00
2018-12-08T10:54:45.148Z,2372.00
2018-12-08T10:55:45.086Z,2132.00
2018-12-08T10:56:45.102Z,2040.00
2018-12-08T10:57:45.063Z,1972.00
2018-12-08T10:58:45.094Z,2404.00
2018-12-08T10:59:45.042Z,2560.00
2018-12-08T11:00:45.044Z,2568.00
2018-12-08T11:01:45.019Z,2896.00
2018-12-08T11:02:45.005Z,2868.00
2018-12-08T11:03:45.026Z,2644.00
2018-12-08T11:04:44.996Z,2560.00
2018-12-08T11:05:44.979Z,2456.00
2018-12-08T11:06:44.998Z,2416.00
2018-12-08T11:07:44.954Z,2080.00
2018-12-08T11:08:44.949Z,1828.00
2018-12-08T11:09:44.954Z,1712.00
2018-12-08T11:10:44.920Z,1868.00
2018-12-08T11:11:44.987Z,2076.00
2018-12-08T11:12:44.900Z,2360.00
2018-12-08T11:13:44.978Z,2412.00
2018-12-08T11:14:44.956Z,2148.00
2018-12-08T11:15:44.894Z,2080.00
2018-12-08T11:16:44.856Z,2100.00
2018-12-08T11:17:44.848Z,2128.00
2018-12-08T11:18:44.831Z,2288.00
2018-12-08T11:19:44.818Z,2676.00
2018-12-08T11:20:44.835Z,2488.00
2018-12-08T11:21:44.827Z,2104.00
2018-12-08T11:22:44.781Z,2228.00
2018-12-08T11:23:44.773Z,2680.00
2018-12-08T11:24:44.764Z,2504.00
2018-12-08T11:25:44.751Z,2160.00
2018-12-08T11:26:44.734Z,2016.00
2018-12-08T11:27:44.772Z,1944.00
2018-12-08T11:28:44.721Z,1904.00
2018-12-08T11:29:44.707Z,2016.00
2018-12-08T11:30:44.697Z,1964.00
2018-12-08T11:31:44.680Z,1996.00
2018-12-08T11:32:44.675Z,2572.00
2018-12-08T11:33:44.710Z,3100.00
2018-12-08T11:34:44.646Z,3244.00
2018-12-08T11:35:44.637Z,3008.00
2018-12-08T11:36:49.482Z,2668.00
2018-12-08T11:37:45.608Z,2392.00
2018-12-08T11:38:44.605Z,2216.00
2018-12-08T11:39:44.620Z,2256.00
2018-12-08T11:40:44.590Z,2012.00
2018-12-08T11:41:44.568Z,1860.00
2018-12-08T11:42:44.563Z,1832.00
2018-12-08T11:43:44.552Z,1620.00
2018-12-08T11:44:44.530Z,1548.00
2018-12-08T11:45:44.565Z,1604.00
2018-12-08T11:46:44.508Z,1784.00
2018-12-08T11:47:44.508Z,1868.00
2018-12-08T11:48:44.502Z,2124.00
2018-12-08T11:49:44.487Z,2316.00
2018-12-08T11:50:44.505Z,2360.00
2018-12-08T11:51:44.458Z,2496.00
2018-12-08T11:52:44.448Z,2820.00
2018-12-08T11:53:44.435Z,2544.00
2018-12-08T11:54:44.425Z,2240.00
2018-12-08T11:55:44.420Z,2212.00
2018-12-08T11:56:44.436Z,1988.00
2018-12-08T11:57:44.388Z,1776.00
2018-12-08T11:58:44.377Z,1628.00
2018-12-08T11:59:44.370Z,1836.00
2018-12-08T12:00:44.351Z,1892.00
2018-12-08T12:01:44.340Z,2144.00
2018-12-08T12:02:44.368Z,2744.00
2018-12-08T12:03:44.319Z,2468.00
2018-12-08T12:04:44.310Z,2164.00
2018-12-08T12:05:44.563Z,1772.00
2018-12-08T12:06:44.291Z,1672.00
2018-12-08T12:07:44.280Z,1676.00
2018-12-08T12:08:44.263Z,1500.00
2018-12-08T12:09:44.261Z,1288.00
2018-12-08T12:10:44.251Z,1232.00
2018-12-08T12:11:44.275Z,1456.00
2018-12-08T12:12:44.219Z,1712.00
2018-12-08T12:13:44.226Z,1628.00
2018-12-08T12:14:44.197Z,1236.00
2018-12-08T12:15:44.206Z,1024.00
2018-12-08T12:16:44.183Z,1016.00
2018-12-08T12:17:44.197Z,1212.00
2018-12-08T12:18:44.159Z,1596.00
2018-12-08T12:19:44.185Z,1672.00
2018-12-08T12:20:44.135Z,1584.00
2018-12-08T12:21:44.119Z,1648.00
2018-12-08T12:22:44.112Z,1492.00
2018-12-08T12:23:44.114Z,1316.00
2018-12-08T12:25:58.609Z,1108.00
2018-12-08T12:26:58.676Z,1056.00
2018-12-08T12:27:58.556Z,1028.00
2018-12-08T12:28:58.544Z,1064.00
2018-12-08T12:29:58.534Z,1220.00
2018-12-08T12:30:58.519Z,1308.00
2018-12-08T12:31:58.516Z,1348.00
2018-12-08T12:32:58.536Z,1244.00
2018-12-08T12:33:58.488Z,1252.00
2018-12-08T12:34:58.477Z,1232.00
2018-12-08T12:35:58.466Z,1144.00
2018-12-08T12:36:58.459Z,1020.00
2018-12-08T12:37:58.441Z,1056.00
2018-12-08T12:38:58.477Z,1108.00
2018-12-08T12:39:58.423Z,1064.00
2018-12-08T12:40:58.414Z,1092.00
2018-12-08T12:41:58.403Z,1016.00
2018-12-08T12:42:58.390Z,1068.00
2018-12-08T12:43:58.404Z,1080.00
2018-12-08T12:44:58.364Z,1072.00
2018-12-08T12:45:58.358Z,1176.00
2018-12-08T12:46:58.341Z,1272.00
2018-12-08T12:47:58.377Z,1208.00